sensor_id;sensor_type;location;lat;lon;timestamp;temperature;humidity
7530;DHT22;3806;52.270;10.544;2023-04-02T00:00:30;5.10;99.90
7530;DHT22;3806;52.270;10.544;2023-04-02T00:03:04;5.20;99.90
7530;DHT22;3806;52.270;10.544;2023-04-02T00:05:40;5.20;99.90
7530;DHT22;3806;52.270;10.544;2023-04-02T00:10:55;5.00;99.90
7530;DHT22;3806;52.270;10.544;2023-04-02T00:13:29;4.90;99.90
7530;DHT22;3806;52.270;10.544;2023-04-02T00:15:56;5.00;99.90
7530;DHT22;3806;52.270;10.544;2023-04-02T00:18:23;5.00;99.90
7530;DHT22;3806;52.270;10.544;2023-04-02T00:21:21;5.00;99.90
7530;DHT22;3806;52.270;10.544;2023-04-02T00:23:47;4.90;99.90
7530;DHT22;3806;52.270;10.544;2023-04-02T00:26:31;4.90;99.90
7530;DHT22;3806;52.270;10.544;2023-04-02T00:28:59;4.90;99.90
7530;DHT22;3806;52.270;10.544;2023-04-02T00:31:25;4.90;99.90
7530;DHT22;3806;52.270;10.544;2023-04-02T00:33:51;4.90;99.90
7530;DHT22;3806;52.270;10.544;2023-04-02T00:36:18;4.90;99.90
7530;DHT22;3806;52.270;10.544;2023-04-02T00:38:46;4.90;99.90
7530;DHT22;3806;52.270;10.544;2023-04-02T00:41:15;5.00;99.90
7530;DHT22;3806;52.270;10.544;2023-04-02T00:43:44;4.90;99.90
7530;DHT22;3806;52.270;10.544;2023-04-02T00:46:14;4.90;99.90
7530;DHT22;3806;52.270;10.544;2023-04-02T00:48:50;4.80;99.90
7530;DHT22;3806;52.270;10.544;2023-04-02T00:51:19;4.80;99.90
7530;DHT22;3806;52.270;10.544;2023-04-02T00:53:48;4.90;99.90
7530;DHT22;3806;52.270;10.544;2023-04-02T00:56:25;4.90;99.90
7530;DHT22;3806;52.270;10.544;2023-04-02T00:58:54;4.90;99.90
7530;DHT22;3806;52.270;10.544;2023-04-02T01:01:33;4.90;99.90
7530;DHT22;3806;52.270;10.544;2023-04-02T01:04:01;4.90;99.90
7530;DHT22;3806;52.270;10.544;2023-04-02T01:06:32;4.90;99.90
7530;DHT22;3806;52.270;10.544;2023-04-02T01:11:54;4.80;99.90
7530;DHT22;3806;52.270;10.544;2023-04-02T01:14:49;4.80;99.90
7530;DHT22;3806;52.270;10.544;2023-04-02T01:20:17;4.80;99.90
7530;DHT22;3806;52.270;10.544;2023-04-02T01:22:58;4.70;99.90
7530;DHT22;3806;52.270;10.544;2023-04-02T01:25:42;4.70;99.90
7530;DHT22;3806;52.270;10.544;2023-04-02T01:28:21;4.60;99.90
7530;DHT22;3806;52.270;10.544;2023-04-02T01:30:54;4.70;99.90
7530;DHT22;3806;52.270;10.544;2023-04-02T01:33:22;4.60;99.90
7530;DHT22;3806;52.270;10.544;2023-04-02T01:35:55;4.50;99.90
7530;DHT22;3806;52.270;10.544;2023-04-02T01:38:37;4.60;99.90
7530;DHT22;3806;52.270;10.544;2023-04-02T01:41:12;4.60;99.90
7530;DHT22;3806;52.270;10.544;2023-04-02T01:43:59;4.50;99.90
7530;DHT22;3806;52.270;10.544;2023-04-02T01:46:31;4.50;99.90
7530;DHT22;3806;52.270;10.544;2023-04-02T01:49:00;4.50;99.90
7530;DHT22;3806;52.270;10.544;2023-04-02T01:51:33;4.50;99.90
7530;DHT22;3806;52.270;10.544;2023-04-02T01:54:01;4.50;99.90
7530;DHT22;3806;52.270;10.544;2023-04-02T01:56:28;4.50;99.90
7530;DHT22;3806;52.270;10.544;2023-04-02T01:58:55;4.50;99.90
7530;DHT22;3806;52.270;10.544;2023-04-02T02:01:25;4.50;99.90
7530;DHT22;3806;52.270;10.544;2023-04-02T02:03:53;4.50;99.90
7530;DHT22;3806;52.270;10.544;2023-04-02T02:06:18;4.50;99.90
7530;DHT22;3806;52.270;10.544;2023-04-02T02:11:17;4.40;99.90
7530;DHT22;3806;52.270;10.544;2023-04-02T02:13:51;4.50;99.90
7530;DHT22;3806;52.270;10.544;2023-04-02T02:16:19;4.50;99.90
7530;DHT22;3806;52.270;10.544;2023-04-02T02:18:51;4.50;99.90
7530;DHT22;3806;52.270;10.544;2023-04-02T02:21:32;4.50;99.90
7530;DHT22;3806;52.270;10.544;2023-04-02T02:24:02;4.40;99.90
7530;DHT22;3806;52.270;10.544;2023-04-02T02:26:31;4.40;99.90
7530;DHT22;3806;52.270;10.544;2023-04-02T02:28:59;4.40;99.90
7530;DHT22;3806;52.270;10.544;2023-04-02T02:31:30;4.40;99.90
7530;DHT22;3806;52.270;10.544;2023-04-02T02:34:08;4.40;99.90
7530;DHT22;3806;52.270;10.544;2023-04-02T02:36:46;4.60;99.90
7530;DHT22;3806;52.270;10.544;2023-04-02T02:39:24;4.50;99.90
7530;DHT22;3806;52.270;10.544;2023-04-02T02:41:56;4.40;99.90
7530;DHT22;3806;52.270;10.544;2023-04-02T02:44:27;4.50;99.90
7530;DHT22;3806;52.270;10.544;2023-04-02T02:47:00;4.40;99.90
7530;DHT22;3806;52.270;10.544;2023-04-02T02:49:30;4.40;99.90
7530;DHT22;3806;52.270;10.544;2023-04-02T02:54:26;4.40;99.90
7530;DHT22;3806;52.270;10.544;2023-04-02T02:57:00;4.40;99.90
7530;DHT22;3806;52.270;10.544;2023-04-02T02:59:27;4.50;99.90
7530;DHT22;3806;52.270;10.544;2023-04-02T03:01:53;4.60;99.90
7530;DHT22;3806;52.270;10.544;2023-04-02T03:04:22;4.60;99.90
7530;DHT22;3806;52.270;10.544;2023-04-02T03:06:52;4.60;99.90
7530;DHT22;3806;52.270;10.544;2023-04-02T03:09:51;4.60;99.90
7530;DHT22;3806;52.270;10.544;2023-04-02T03:12:30;4.60;99.90
7530;DHT22;3806;52.270;10.544;2023-04-02T03:17:46;4.50;99.90
7530;DHT22;3806;52.270;10.544;2023-04-02T03:20:23;4.50;99.90
7530;DHT22;3806;52.270;10.544;2023-04-02T03:22:57;4.50;99.90
7530;DHT22;3806;52.270;10.544;2023-04-02T03:25:40;4.50;99.90
7530;DHT22;3806;52.270;10.544;2023-04-02T03:28:13;4.40;99.90
7530;DHT22;3806;52.270;10.544;2023-04-02T03:30:50;4.40;99.90
7530;DHT22;3806;52.270;10.544;2023-04-02T03:33:31;4.50;99.90
7530;DHT22;3806;52.270;10.544;2023-04-02T03:38:27;4.50;99.60
7530;DHT22;3806;52.270;10.544;2023-04-02T03:41:10;4.40;99.10
7530;DHT22;3806;52.270;10.544;2023-04-02T03:43:43;4.40;99.10
7530;DHT22;3806;52.270;10.544;2023-04-02T03:46:30;4.40;99.10
7530;DHT22;3806;52.270;10.544;2023-04-02T03:49:00;4.40;98.90
7530;DHT22;3806;52.270;10.544;2023-04-02T03:51:34;4.30;99.10
7530;DHT22;3806;52.270;10.544;2023-04-02T03:54:01;4.30;99.30
7530;DHT22;3806;52.270;10.544;2023-04-02T03:56:30;4.30;99.20
7530;DHT22;3806;52.270;10.544;2023-04-02T03:59:15;4.40;98.90
7530;DHT22;3806;52.270;10.544;2023-04-02T04:01:59;4.30;98.90
7530;DHT22;3806;52.270;10.544;2023-04-02T04:04:27;4.30;99.00
7530;DHT22;3806;52.270;10.544;2023-04-02T04:06:55;4.30;99.20
7530;DHT22;3806;52.270;10.544;2023-04-02T04:09:26;4.30;99.30
7530;DHT22;3806;52.270;10.544;2023-04-02T04:12:17;4.40;99.30
7530;DHT22;3806;52.270;10.544;2023-04-02T04:14:50;4.40;98.90
7530;DHT22;3806;52.270;10.544;2023-04-02T04:18:01;4.50;98.60
7530;DHT22;3806;52.270;10.544;2023-04-02T04:20:34;4.40;98.60
7530;DHT22;3806;52.270;10.544;2023-04-02T04:23:16;4.40;98.80
7530;DHT22;3806;52.270;10.544;2023-04-02T04:25:42;4.40;98.80
7530;DHT22;3806;52.270;10.544;2023-04-02T04:28:32;4.40;98.50
7530;DHT22;3806;52.270;10.544;2023-04-02T04:31:12;4.40;98.60
7530;DHT22;3806;52.270;10.544;2023-04-02T04:33:44;4.40;98.40
7530;DHT22;3806;52.270;10.544;2023-04-02T04:36:24;4.40;98.60
7530;DHT22;3806;52.270;10.544;2023-04-02T04:38:53;4.40;98.80
7530;DHT22;3806;52.270;10.544;2023-04-02T04:41:31;4.40;99.10
7530;DHT22;3806;52.270;10.544;2023-04-02T04:44:13;4.40;98.40
7530;DHT22;3806;52.270;10.544;2023-04-02T04:46:48;4.40;98.60
7530;DHT22;3806;52.270;10.544;2023-04-02T04:49:31;4.40;98.40
7530;DHT22;3806;52.270;10.544;2023-04-02T04:52:12;4.40;98.30
7530;DHT22;3806;52.270;10.544;2023-04-02T04:54:39;4.50;98.00
7530;DHT22;3806;52.270;10.544;2023-04-02T04:57:26;4.40;97.70
7530;DHT22;3806;52.270;10.544;2023-04-02T05:00:05;4.40;98.00
7530;DHT22;3806;52.270;10.544;2023-04-02T05:02:52;4.40;98.30
7530;DHT22;3806;52.270;10.544;2023-04-02T05:05:23;4.40;98.50
7530;DHT22;3806;52.270;10.544;2023-04-02T05:07:55;4.40;98.20
7530;DHT22;3806;52.270;10.544;2023-04-02T05:10:44;4.50;98.20
7530;DHT22;3806;52.270;10.544;2023-04-02T05:13:41;4.50;98.30
7530;DHT22;3806;52.270;10.544;2023-04-02T05:16:25;4.50;98.40
7530;DHT22;3806;52.270;10.544;2023-04-02T05:21:50;4.60;98.20
7530;DHT22;3806;52.270;10.544;2023-04-02T05:24:36;4.60;98.10
7530;DHT22;3806;52.270;10.544;2023-04-02T05:27:21;4.50;98.10
7530;DHT22;3806;52.270;10.544;2023-04-02T05:32:41;4.60;98.20
7530;DHT22;3806;52.270;10.544;2023-04-02T05:35:14;4.60;98.20
7530;DHT22;3806;52.270;10.544;2023-04-02T05:37:41;4.60;98.10
7530;DHT22;3806;52.270;10.544;2023-04-02T05:40:14;4.60;97.90
7530;DHT22;3806;52.270;10.544;2023-04-02T05:42:47;4.70;98.00
7530;DHT22;3806;52.270;10.544;2023-04-02T05:45:29;4.70;97.90
7530;DHT22;3806;52.270;10.544;2023-04-02T05:47:56;4.80;97.90
7530;DHT22;3806;52.270;10.544;2023-04-02T05:50:33;4.80;97.70
7530;DHT22;3806;52.270;10.544;2023-04-02T05:53:12;4.80;97.80
7530;DHT22;3806;52.270;10.544;2023-04-02T05:55:53;4.80;97.30
7530;DHT22;3806;52.270;10.544;2023-04-02T05:58:26;4.70;97.20
7530;DHT22;3806;52.270;10.544;2023-04-02T06:01:02;4.80;97.40
7530;DHT22;3806;52.270;10.544;2023-04-02T06:06:19;4.80;97.60
7530;DHT22;3806;52.270;10.544;2023-04-02T06:09:34;4.80;97.80
7530;DHT22;3806;52.270;10.544;2023-04-02T06:11:42;4.90;97.40
7530;DHT22;3806;52.270;10.544;2023-04-02T06:14:12;4.90;97.20
7530;DHT22;3806;52.270;10.544;2023-04-02T06:16:38;4.90;97.40
7530;DHT22;3806;52.270;10.544;2023-04-02T06:19:14;4.90;97.00
7530;DHT22;3806;52.270;10.544;2023-04-02T06:21:45;4.90;96.40
7530;DHT22;3806;52.270;10.544;2023-04-02T06:24:13;4.90;96.20
7530;DHT22;3806;52.270;10.544;2023-04-02T06:26:42;4.90;96.40
7530;DHT22;3806;52.270;10.544;2023-04-02T06:29:23;4.90;96.40
7530;DHT22;3806;52.270;10.544;2023-04-02T06:31:57;4.90;96.60
7530;DHT22;3806;52.270;10.544;2023-04-02T06:34:25;4.90;97.00
7530;DHT22;3806;52.270;10.544;2023-04-02T06:36:57;4.90;97.10
7530;DHT22;3806;52.270;10.544;2023-04-02T06:39:24;5.00;96.70
7530;DHT22;3806;52.270;10.544;2023-04-02T06:42:00;5.00;96.20
7530;DHT22;3806;52.270;10.544;2023-04-02T06:44:31;5.00;96.30
7530;DHT22;3806;52.270;10.544;2023-04-02T06:47:12;5.00;96.30
7530;DHT22;3806;52.270;10.544;2023-04-02T06:49:45;5.00;96.10
7530;DHT22;3806;52.270;10.544;2023-04-02T06:54:59;4.90;96.70
7530;DHT22;3806;52.270;10.544;2023-04-02T06:57:25;4.90;96.90
7530;DHT22;3806;52.270;10.544;2023-04-02T06:59:50;5.00;96.90
7530;DHT22;3806;52.270;10.544;2023-04-02T07:02:26;5.00;97.20
7530;DHT22;3806;52.270;10.544;2023-04-02T07:05:01;5.10;97.10
7530;DHT22;3806;52.270;10.544;2023-04-02T07:07:27;5.10;97.00
7530;DHT22;3806;52.270;10.544;2023-04-02T07:09:52;5.20;96.80
7530;DHT22;3806;52.270;10.544;2023-04-02T07:12:22;5.20;97.10
7530;DHT22;3806;52.270;10.544;2023-04-02T07:14:49;5.20;97.10
7530;DHT22;3806;52.270;10.544;2023-04-02T07:17:18;5.20;97.10
7530;DHT22;3806;52.270;10.544;2023-04-02T07:19:44;5.20;97.20
7530;DHT22;3806;52.270;10.544;2023-04-02T07:22:13;5.30;97.30
7530;DHT22;3806;52.270;10.544;2023-04-02T07:24:39;5.30;97.30
7530;DHT22;3806;52.270;10.544;2023-04-02T07:27:04;5.30;97.50
7530;DHT22;3806;52.270;10.544;2023-04-02T07:29:30;5.40;97.30
7530;DHT22;3806;52.270;10.544;2023-04-02T07:31:55;5.40;97.20
7530;DHT22;3806;52.270;10.544;2023-04-02T07:34:21;5.40;97.00
7530;DHT22;3806;52.270;10.544;2023-04-02T07:36:46;5.30;97.20
7530;DHT22;3806;52.270;10.544;2023-04-02T07:39:13;5.30;97.10
7530;DHT22;3806;52.270;10.544;2023-04-02T07:41:57;5.30;97.00
7530;DHT22;3806;52.270;10.544;2023-04-02T07:44:23;5.40;96.90
7530;DHT22;3806;52.270;10.544;2023-04-02T07:46:48;5.40;96.90
7530;DHT22;3806;52.270;10.544;2023-04-02T07:49:14;5.40;97.10
7530;DHT22;3806;52.270;10.544;2023-04-02T07:51:40;5.40;97.30
7530;DHT22;3806;52.270;10.544;2023-04-02T07:54:06;5.50;97.00
7530;DHT22;3806;52.270;10.544;2023-04-02T07:56:34;5.50;96.90
7530;DHT22;3806;52.270;10.544;2023-04-02T07:59:00;5.50;96.70
7530;DHT22;3806;52.270;10.544;2023-04-02T08:01:26;5.30;96.50
7530;DHT22;3806;52.270;10.544;2023-04-02T08:03:53;5.50;96.60
7530;DHT22;3806;52.270;10.544;2023-04-02T08:06:22;5.40;96.70
7530;DHT22;3806;52.270;10.544;2023-04-02T08:08:48;5.50;96.80
7530;DHT22;3806;52.270;10.544;2023-04-02T08:11:14;5.40;96.60
7530;DHT22;3806;52.270;10.544;2023-04-02T08:13:39;5.40;96.60
7530;DHT22;3806;52.270;10.544;2023-04-02T08:16:06;5.50;96.60
7530;DHT22;3806;52.270;10.544;2023-04-02T08:18:32;5.50;96.50
7530;DHT22;3806;52.270;10.544;2023-04-02T08:20:58;5.70;96.30
7530;DHT22;3806;52.270;10.544;2023-04-02T08:23:25;5.60;96.30
7530;DHT22;3806;52.270;10.544;2023-04-02T08:25:53;5.60;96.20
7530;DHT22;3806;52.270;10.544;2023-04-02T08:28:20;5.50;95.30
7530;DHT22;3806;52.270;10.544;2023-04-02T08:30:47;5.60;95.20
7530;DHT22;3806;52.270;10.544;2023-04-02T08:33:16;5.60;95.10
7530;DHT22;3806;52.270;10.544;2023-04-02T08:35:43;5.50;94.80
7530;DHT22;3806;52.270;10.544;2023-04-02T08:38:13;5.60;94.70
7530;DHT22;3806;52.270;10.544;2023-04-02T08:40:42;5.70;94.80
7530;DHT22;3806;52.270;10.544;2023-04-02T08:48:42;5.90;93.60
7530;DHT22;3806;52.270;10.544;2023-04-02T08:51:22;6.00;93.20
7530;DHT22;3806;52.270;10.544;2023-04-02T08:53:52;5.90;92.70
7530;DHT22;3806;52.270;10.544;2023-04-02T08:56:26;5.90;92.50
7530;DHT22;3806;52.270;10.544;2023-04-02T08:58:55;5.90;92.70
7530;DHT22;3806;52.270;10.544;2023-04-02T09:03:57;5.90;93.00
7530;DHT22;3806;52.270;10.544;2023-04-02T09:06:24;5.80;93.20
7530;DHT22;3806;52.270;10.544;2023-04-02T09:08:51;5.80;93.40
7530;DHT22;3806;52.270;10.544;2023-04-02T09:13:47;5.90;94.10
7530;DHT22;3806;52.270;10.544;2023-04-02T09:16:18;6.00;94.50
7530;DHT22;3806;52.270;10.544;2023-04-02T09:18:48;6.00;94.30
7530;DHT22;3806;52.270;10.544;2023-04-02T09:23:48;6.10;93.60
7530;DHT22;3806;52.270;10.544;2023-04-02T09:26:26;6.10;93.00
7530;DHT22;3806;52.270;10.544;2023-04-02T09:29:45;6.10;93.00
7530;DHT22;3806;52.270;10.544;2023-04-02T09:32:24;6.10;92.80
7530;DHT22;3806;52.270;10.544;2023-04-02T09:34:42;6.10;92.40
7530;DHT22;3806;52.270;10.544;2023-04-02T09:37:17;6.20;92.60
7530;DHT22;3806;52.270;10.544;2023-04-02T09:39:44;6.20;92.60
7530;DHT22;3806;52.270;10.544;2023-04-02T09:45:22;6.20;91.90
7530;DHT22;3806;52.270;10.544;2023-04-02T09:47:49;6.30;92.10
7530;DHT22;3806;52.270;10.544;2023-04-02T09:50:26;6.30;92.00
7530;DHT22;3806;52.270;10.544;2023-04-02T09:52:51;6.30;92.30
7530;DHT22;3806;52.270;10.544;2023-04-02T09:55:22;6.40;92.10
7530;DHT22;3806;52.270;10.544;2023-04-02T09:57:49;6.40;92.40
7530;DHT22;3806;52.270;10.544;2023-04-02T10:00:23;6.40;92.60
7530;DHT22;3806;52.270;10.544;2023-04-02T10:03:16;6.50;92.40
7530;DHT22;3806;52.270;10.544;2023-04-02T10:05:45;6.60;92.10
7530;DHT22;3806;52.270;10.544;2023-04-02T10:08:19;6.70;91.80
7530;DHT22;3806;52.270;10.544;2023-04-02T10:10:48;6.80;92.00
7530;DHT22;3806;52.270;10.544;2023-04-02T10:13:23;6.90;91.30
7530;DHT22;3806;52.270;10.544;2023-04-02T10:16:00;7.10;91.20
7530;DHT22;3806;52.270;10.544;2023-04-02T10:18:47;7.20;88.80
7530;DHT22;3806;52.270;10.544;2023-04-02T10:21:20;7.30;87.80
7530;DHT22;3806;52.270;10.544;2023-04-02T10:23:47;7.40;87.30
7530;DHT22;3806;52.270;10.544;2023-04-02T10:29:34;7.70;85.30
7530;DHT22;3806;52.270;10.544;2023-04-02T10:32:27;7.80;83.30
7530;DHT22;3806;52.270;10.544;2023-04-02T10:38:18;7.90;82.60
7530;DHT22;3806;52.270;10.544;2023-04-02T10:43:42;7.90;80.50
7530;DHT22;3806;52.270;10.544;2023-04-02T10:52:36;8.00;79.50
7530;DHT22;3806;52.270;10.544;2023-04-02T10:55:12;8.20;78.10
7530;DHT22;3806;52.270;10.544;2023-04-02T10:57:40;8.30;76.30
7530;DHT22;3806;52.270;10.544;2023-04-02T11:02:58;8.50;74.60
7530;DHT22;3806;52.270;10.544;2023-04-02T11:08:26;8.60;73.80
7530;DHT22;3806;52.270;10.544;2023-04-02T11:11:13;8.70;74.40
7530;DHT22;3806;52.270;10.544;2023-04-02T11:14:00;9.00;73.70
7530;DHT22;3806;52.270;10.544;2023-04-02T11:16:26;9.10;71.60
7530;DHT22;3806;52.270;10.544;2023-04-02T11:21:46;9.20;70.10
7530;DHT22;3806;52.270;10.544;2023-04-02T11:32:27;9.20;69.80
7530;DHT22;3806;52.270;10.544;2023-04-02T11:37:42;9.40;68.30
7530;DHT22;3806;52.270;10.544;2023-04-02T11:42:47;9.30;66.10
7530;DHT22;3806;52.270;10.544;2023-04-02T11:50:44;9.10;66.10
7530;DHT22;3806;52.270;10.544;2023-04-02T11:55:37;9.90;65.30
7530;DHT22;3806;52.270;10.544;2023-04-02T12:04:08;11.10;58.20
7530;DHT22;3806;52.270;10.544;2023-04-02T12:09:34;11.30;54.10
7530;DHT22;3806;52.270;10.544;2023-04-02T12:14:50;11.00;55.80
7530;DHT22;3806;52.270;10.544;2023-04-02T12:17:36;10.70;56.40
7530;DHT22;3806;52.270;10.544;2023-04-02T12:20:23;10.50;56.40
7530;DHT22;3806;52.270;10.544;2023-04-02T12:22:55;10.20;56.70
7530;DHT22;3806;52.270;10.544;2023-04-02T12:25:32;10.10;57.50
7530;DHT22;3806;52.270;10.544;2023-04-02T12:28:14;10.10;58.10
7530;DHT22;3806;52.270;10.544;2023-04-02T12:30:45;10.00;57.60
7530;DHT22;3806;52.270;10.544;2023-04-02T12:35:48;10.40;56.00
7530;DHT22;3806;52.270;10.544;2023-04-02T12:38:22;10.70;55.60
7530;DHT22;3806;52.270;10.544;2023-04-02T12:40:56;11.10;54.60
7530;DHT22;3806;52.270;10.544;2023-04-02T12:43:33;11.50;53.90
7530;DHT22;3806;52.270;10.544;2023-04-02T12:46:01;11.60;52.90
7530;DHT22;3806;52.270;10.544;2023-04-02T12:48:28;11.90;52.50
7530;DHT22;3806;52.270;10.544;2023-04-02T12:50:56;11.80;52.80
7530;DHT22;3806;52.270;10.544;2023-04-02T12:53:36;11.60;52.40
7530;DHT22;3806;52.270;10.544;2023-04-02T12:56:03;11.40;53.40
7530;DHT22;3806;52.270;10.544;2023-04-02T12:58:37;11.70;53.20
7530;DHT22;3806;52.270;10.544;2023-04-02T13:01:20;12.00;52.30
7530;DHT22;3806;52.270;10.544;2023-04-02T13:04:06;12.00;52.40
7530;DHT22;3806;52.270;10.544;2023-04-02T13:06:33;11.90;52.30
7530;DHT22;3806;52.270;10.544;2023-04-02T13:09:01;11.70;52.40
7530;DHT22;3806;52.270;10.544;2023-04-02T13:11:40;11.60;52.40
7530;DHT22;3806;52.270;10.544;2023-04-02T13:14:15;11.20;52.60
7530;DHT22;3806;52.270;10.544;2023-04-02T13:16:42;11.00;52.90
7530;DHT22;3806;52.270;10.544;2023-04-02T13:21:41;10.80;53.20
7530;DHT22;3806;52.270;10.544;2023-04-02T13:24:18;10.70;53.50
7530;DHT22;3806;52.270;10.544;2023-04-02T13:26:45;10.50;53.90
7530;DHT22;3806;52.270;10.544;2023-04-02T13:29:19;10.70;54.70
7530;DHT22;3806;52.270;10.544;2023-04-02T13:31:46;11.20;54.00
7530;DHT22;3806;52.270;10.544;2023-04-02T13:34:11;11.20;53.00
7530;DHT22;3806;52.270;10.544;2023-04-02T13:36:37;11.10;52.80
7530;DHT22;3806;52.270;10.544;2023-04-02T13:39:03;10.90;52.80
7530;DHT22;3806;52.270;10.544;2023-04-02T13:41:33;10.90;53.60
7530;DHT22;3806;52.270;10.544;2023-04-02T13:44:01;11.00;53.40
7530;DHT22;3806;52.270;10.544;2023-04-02T13:46:30;11.10;52.20
7530;DHT22;3806;52.270;10.544;2023-04-02T13:48:57;11.00;50.60
7530;DHT22;3806;52.270;10.544;2023-04-02T13:51:35;10.90;51.10
7530;DHT22;3806;52.270;10.544;2023-04-02T13:54:01;10.90;51.60
7530;DHT22;3806;52.270;10.544;2023-04-02T13:56:28;11.00;50.80
7530;DHT22;3806;52.270;10.544;2023-04-02T13:58:53;11.00;50.20
7530;DHT22;3806;52.270;10.544;2023-04-02T14:01:21;11.10;50.20
7530;DHT22;3806;52.270;10.544;2023-04-02T14:03:49;11.20;50.90
7530;DHT22;3806;52.270;10.544;2023-04-02T14:09:14;11.20;49.40
7530;DHT22;3806;52.270;10.544;2023-04-02T14:15:05;11.10;49.60
7530;DHT22;3806;52.270;10.544;2023-04-02T14:17:56;11.20;49.30
7530;DHT22;3806;52.270;10.544;2023-04-02T14:20:59;11.20;49.10
7530;DHT22;3806;52.270;10.544;2023-04-02T14:23:46;11.00;49.00
7530;DHT22;3806;52.270;10.544;2023-04-02T14:26:37;10.90;48.80
7530;DHT22;3806;52.270;10.544;2023-04-02T14:29:30;10.70;49.70
7530;DHT22;3806;52.270;10.544;2023-04-02T14:32:21;10.80;50.60
7530;DHT22;3806;52.270;10.544;2023-04-02T14:40:28;10.70;49.20
7530;DHT22;3806;52.270;10.544;2023-04-02T14:43:09;10.70;49.60
7530;DHT22;3806;52.270;10.544;2023-04-02T14:46:02;10.80;49.80
7530;DHT22;3806;52.270;10.544;2023-04-02T14:56:48;10.80;49.70
7530;DHT22;3806;52.270;10.544;2023-04-02T14:59:50;10.60;49.10
7530;DHT22;3806;52.270;10.544;2023-04-02T15:02:25;10.40;48.10
7530;DHT22;3806;52.270;10.544;2023-04-02T15:05:01;10.40;48.40
7530;DHT22;3806;52.270;10.544;2023-04-02T15:07:51;10.40;49.10
7530;DHT22;3806;52.270;10.544;2023-04-02T15:10:31;10.40;49.10
7530;DHT22;3806;52.270;10.544;2023-04-02T15:12:57;10.40;51.10
7530;DHT22;3806;52.270;10.544;2023-04-02T15:15:31;10.40;51.50
7530;DHT22;3806;52.270;10.544;2023-04-02T15:18:00;10.40;52.20
7530;DHT22;3806;52.270;10.544;2023-04-02T15:20:37;10.40;52.80
7530;DHT22;3806;52.270;10.544;2023-04-02T15:23:23;10.20;52.30
7530;DHT22;3806;52.270;10.544;2023-04-02T15:26:23;10.10;53.40
7530;DHT22;3806;52.270;10.544;2023-04-02T15:29:25;10.00;53.50
7530;DHT22;3806;52.270;10.544;2023-04-02T15:31:55;10.00;53.50
7530;DHT22;3806;52.270;10.544;2023-04-02T15:34:55;10.00;53.60
7530;DHT22;3806;52.270;10.544;2023-04-02T15:40:38;10.00;52.60
7530;DHT22;3806;52.270;10.544;2023-04-02T15:43:34;9.90;53.90
7530;DHT22;3806;52.270;10.544;2023-04-02T15:46:17;9.80;54.20
7530;DHT22;3806;52.270;10.544;2023-04-02T15:49:04;9.70;54.10
7530;DHT22;3806;52.270;10.544;2023-04-02T16:00:20;9.50;53.50
7530;DHT22;3806;52.270;10.544;2023-04-02T16:08:25;9.40;54.10
7530;DHT22;3806;52.270;10.544;2023-04-02T16:10:53;9.40;53.20
7530;DHT22;3806;52.270;10.544;2023-04-02T16:16:06;9.20;53.70
7530;DHT22;3806;52.270;10.544;2023-04-02T16:21:42;9.30;54.10
7530;DHT22;3806;52.270;10.544;2023-04-02T16:24:11;9.40;54.30
7530;DHT22;3806;52.270;10.544;2023-04-02T16:32:15;9.40;55.40
7530;DHT22;3806;52.270;10.544;2023-04-02T16:37:39;9.30;54.90
7530;DHT22;3806;52.270;10.544;2023-04-02T16:40:25;9.30;54.70
7530;DHT22;3806;52.270;10.544;2023-04-02T16:43:10;9.20;54.60
7530;DHT22;3806;52.270;10.544;2023-04-02T16:48:30;9.00;55.00
7530;DHT22;3806;52.270;10.544;2023-04-02T16:51:01;8.90;55.10
7530;DHT22;3806;52.270;10.544;2023-04-02T16:53:54;8.80;55.70
7530;DHT22;3806;52.270;10.544;2023-04-02T17:02:24;8.70;55.60
7530;DHT22;3806;52.270;10.544;2023-04-02T17:11:06;8.60;56.70
7530;DHT22;3806;52.270;10.544;2023-04-02T17:13:40;8.50;57.20
7530;DHT22;3806;52.270;10.544;2023-04-02T17:19:09;8.40;58.30
7530;DHT22;3806;52.270;10.544;2023-04-02T17:21:38;8.40;58.30
7530;DHT22;3806;52.270;10.544;2023-04-02T17:24:14;8.40;58.00
7530;DHT22;3806;52.270;10.544;2023-04-02T17:26:50;8.20;57.50
7530;DHT22;3806;52.270;10.544;2023-04-02T17:29:22;8.20;57.00
7530;DHT22;3806;52.270;10.544;2023-04-02T17:31:51;8.10;56.80
7530;DHT22;3806;52.270;10.544;2023-04-02T17:34:18;8.10;57.10
7530;DHT22;3806;52.270;10.544;2023-04-02T17:40:03;7.90;58.10
7530;DHT22;3806;52.270;10.544;2023-04-02T17:42:59;7.90;58.60
7530;DHT22;3806;52.270;10.544;2023-04-02T17:46:20;8.00;58.60
7530;DHT22;3806;52.270;10.544;2023-04-02T17:48:31;7.90;59.10
7530;DHT22;3806;52.270;10.544;2023-04-02T17:51:34;7.90;59.50
7530;DHT22;3806;52.270;10.544;2023-04-02T17:54:31;7.90;60.00
7530;DHT22;3806;52.270;10.544;2023-04-02T17:57:10;7.80;60.80
7530;DHT22;3806;52.270;10.544;2023-04-02T18:00:02;7.80;61.20
7530;DHT22;3806;52.270;10.544;2023-04-02T18:08:09;7.70;61.60
7530;DHT22;3806;52.270;10.544;2023-04-02T18:13:34;7.60;61.20
7530;DHT22;3806;52.270;10.544;2023-04-02T18:16:19;7.40;61.60
7530;DHT22;3806;52.270;10.544;2023-04-02T18:19:07;7.30;61.90
7530;DHT22;3806;52.270;10.544;2023-04-02T18:21:56;7.30;62.10
7530;DHT22;3806;52.270;10.544;2023-04-02T18:33:16;7.10;63.50
7530;DHT22;3806;52.270;10.544;2023-04-02T18:36:10;7.10;64.00
7530;DHT22;3806;52.270;10.544;2023-04-02T18:38:52;6.90;63.90
7530;DHT22;3806;52.270;10.544;2023-04-02T18:41:36;6.90;64.50
7530;DHT22;3806;52.270;10.544;2023-04-02T18:44:14;6.90;65.00
7530;DHT22;3806;52.270;10.544;2023-04-02T18:47:01;6.90;65.10
7530;DHT22;3806;52.270;10.544;2023-04-02T18:50:22;6.90;65.10
7530;DHT22;3806;52.270;10.544;2023-04-02T18:52:49;6.80;65.50
7530;DHT22;3806;52.270;10.544;2023-04-02T18:55:19;6.80;66.00
7530;DHT22;3806;52.270;10.544;2023-04-02T18:57:48;6.70;66.30
7530;DHT22;3806;52.270;10.544;2023-04-02T19:00:30;6.70;66.80
7530;DHT22;3806;52.270;10.544;2023-04-02T19:03:26;6.60;67.50
7530;DHT22;3806;52.270;10.544;2023-04-02T19:08:28;6.50;68.50
7530;DHT22;3806;52.270;10.544;2023-04-02T19:11:05;6.50;68.90
7530;DHT22;3806;52.270;10.544;2023-04-02T19:13:33;6.50;70.50
7530;DHT22;3806;52.270;10.544;2023-04-02T19:18:59;6.40;71.20
7530;DHT22;3806;52.270;10.544;2023-04-02T19:21:38;6.40;71.70
7530;DHT22;3806;52.270;10.544;2023-04-02T19:24:27;6.30;72.10
7530;DHT22;3806;52.270;10.544;2023-04-02T19:27:16;6.30;72.30
7530;DHT22;3806;52.270;10.544;2023-04-02T19:32:31;6.10;73.20
7530;DHT22;3806;52.270;10.544;2023-04-02T19:35:19;6.10;73.70
7530;DHT22;3806;52.270;10.544;2023-04-02T19:37:54;6.00;74.10
7530;DHT22;3806;52.270;10.544;2023-04-02T19:40:30;6.00;74.80
7530;DHT22;3806;52.270;10.544;2023-04-02T19:42:58;5.90;75.20
7530;DHT22;3806;52.270;10.544;2023-04-02T19:45:29;5.90;75.50
7530;DHT22;3806;52.270;10.544;2023-04-02T19:47:58;5.90;76.30
7530;DHT22;3806;52.270;10.544;2023-04-02T19:50:25;5.80;76.30
7530;DHT22;3806;52.270;10.544;2023-04-02T19:52:50;5.80;76.80
7530;DHT22;3806;52.270;10.544;2023-04-02T19:55:16;5.80;77.30
7530;DHT22;3806;52.270;10.544;2023-04-02T19:57:41;5.70;77.90
7530;DHT22;3806;52.270;10.544;2023-04-02T20:00:10;5.70;77.90
7530;DHT22;3806;52.270;10.544;2023-04-02T20:02:36;5.70;78.30
7530;DHT22;3806;52.270;10.544;2023-04-02T20:05:01;5.60;78.60
7530;DHT22;3806;52.270;10.544;2023-04-02T20:07:29;5.60;78.90
7530;DHT22;3806;52.270;10.544;2023-04-02T20:09:55;5.60;79.30
7530;DHT22;3806;52.270;10.544;2023-04-02T20:12:20;5.60;79.60